Time;durP1;ratioP1;P1;durP2;ratioP2;P2;SDS_P1;SDS_P2;PMS_P1;PMS_P2;Temp;Humidity;BMP_temperature;BMP_pressure;BME280_temperature;BME280_humidity;BME280_pressure;Samples;Min_cycle;Max_cycle;Signal;HPM_P1;HPM_P2
2020/12/06 00:00:29;;;;;;;22.60;14.20;;;4.20;99.90;;;;;;5020903;28;20099;-77
2020/12/06 00:02:54;;;;;;;22.77;15.27;;;4.20;99.90;;;;;;5015093;28;20042;-77
2020/12/06 00:05:20;;;;;;;24.00;15.05;;;4.20;99.90;;;;;;5021133;28;20090;-76
2020/12/06 00:07:46;;;;;;;21.60;14.25;;;4.20;99.90;;;;;;5018041;28;20045;-75
2020/12/06 00:10:17;;;;;;;22.40;14.60;;;4.20;99.90;;;;;;5025767;28;20042;-77
2020/12/06 00:12:44;;;;;;;21.58;13.73;;;4.30;99.90;;;;;;5018976;28;20026;-77
2020/12/06 00:15:10;;;;;;;22.55;14.40;;;4.30;99.90;;;;;;5018949;28;20069;-77
2020/12/06 00:17:36;;;;;;;23.73;14.35;;;4.30;99.90;;;;;;5017911;28;20037;-76
2020/12/06 00:20:09;;;;;;;20.33;13.80;;;4.40;99.90;;;;;;5022592;28;20046;-76
2020/12/06 00:22:35;;;;;;;22.60;15.00;;;4.40;99.90;;;;;;5022612;28;20053;-77
2020/12/06 00:25:03;;;;;;;20.98;13.57;;;4.30;99.90;;;;;;5015731;28;20046;-76
2020/12/06 00:27:32;;;;;;;21.77;14.15;;;4.30;99.90;;;;;;5017773;28;20029;-77
2020/12/06 00:29:58;;;;;;;20.85;13.40;;;4.30;99.90;;;;;;5013799;28;20026;-74
2020/12/06 00:32:24;;;;;;;25.10;14.65;;;4.30;99.90;;;;;;5016194;28;20408;-74
2020/12/06 00:34:49;;;;;;;20.45;13.52;;;4.30;99.90;;;;;;5021900;28;20071;-76
2020/12/06 00:37:16;;;;;;;22.05;13.70;;;4.30;99.90;;;;;;5018463;28;20126;-76
2020/12/06 00:39:43;;;;;;;22.45;14.40;;;4.30;99.90;;;;;;5017754;28;20034;-75
2020/12/06 00:42:09;;;;;;;23.42;15.20;;;4.40;99.90;;;;;;5026841;28;20026;-76
2020/12/06 00:44:35;;;;;;;27.90;16.23;;;4.40;99.90;;;;;;5014165;28;20029;-76
2020/12/06 00:47:01;;;;;;;51.03;26.33;;;4.40;99.90;;;;;;5024990;28;20103;-77
2020/12/06 00:49:27;;;;;;;22.48;14.90;;;4.40;99.90;;;;;;5020927;28;20133;-77
2020/12/06 00:51:53;;;;;;;21.45;14.30;;;4.40;99.90;;;;;;5015340;28;20038;-74
2020/12/06 00:54:19;;;;;;;22.42;14.85;;;4.30;99.90;;;;;;4987619;28;20044;-75
2020/12/06 00:56:44;;;;;;;23.98;15.50;;;4.30;99.90;;;;;;5016867;28;20053;-75
2020/12/06 00:59:10;;;;;;;23.92;15.13;;;4.30;99.90;;;;;;4997414;28;20525;-75
2020/12/06 01:01:40;;;;;;;23.55;14.93;;;4.30;99.90;;;;;;5015171;28;20113;-75
2020/12/06 01:04:05;;;;;;;23.00;14.57;;;4.30;99.90;;;;;;5023119;28;20026;-74
2020/12/06 01:06:31;;;;;;;23.95;14.63;;;4.30;99.90;;;;;;5016295;28;20407;-74
2020/12/06 01:08:57;;;;;;;24.70;16.05;;;4.20;99.90;;;;;;5011663;28;20056;-77
2020/12/06 01:11:22;;;;;;;24.00;15.68;;;4.20;99.90;;;;;;5019897;28;20042;-76
2020/12/06 01:13:48;;;;;;;23.65;15.18;;;4.30;99.90;;;;;;5013169;28;20540;-74
2020/12/06 01:16:14;;;;;;;22.77;15.32;;;4.30;99.90;;;;;;5021401;28;20296;-74
2020/12/06 01:18:40;;;;;;;22.17;15.02;;;4.30;99.90;;;;;;5019936;28;20038;-76
2020/12/06 01:21:06;;;;;;;25.42;15.07;;;4.30;99.90;;;;;;5014190;28;20121;-75
2020/12/06 01:23:31;;;;;;;23.75;15.35;;;4.30;99.90;;;;;;5018987;28;20086;-75
2020/12/06 01:25:57;;;;;;;23.70;15.90;;;4.30;99.90;;;;;;5017870;28;20513;-76
2020/12/06 01:28:22;;;;;;;25.70;16.25;;;4.30;99.90;;;;;;5017177;28;20038;-77
2020/12/06 01:30:48;;;;;;;24.02;15.43;;;4.30;99.90;;;;;;5021300;28;20087;-76
2020/12/06 01:33:14;;;;;;;24.08;15.77;;;4.40;99.90;;;;;;5018772;28;20053;-75
2020/12/06 01:35:39;;;;;;;26.77;16.48;;;4.40;99.90;;;;;;5021649;28;20034;-77
2020/12/06 01:38:05;;;;;;;23.35;15.07;;;4.40;99.90;;;;;;5016745;28;20042;-75
2020/12/06 01:40:31;;;;;;;23.15;15.23;;;4.40;99.90;;;;;;5019523;28;20061;-74
2020/12/06 01:42:57;;;;;;;25.45;16.77;;;4.40;99.90;;;;;;5013300;28;20108;-75
2020/12/06 01:45:24;;;;;;;27.63;17.23;;;4.40;99.90;;;;;;5022743;28;20041;-75
2020/12/06 01:47:50;;;;;;;23.98;16.23;;;4.40;99.90;;;;;;5021616;28;20021;-73
2020/12/06 01:50:18;;;;;;;24.23;16.30;;;4.40;99.90;;;;;;5021648;28;20037;-75
2020/12/06 01:52:45;;;;;;;26.25;15.93;;;4.40;99.90;;;;;;5020705;28;20044;-76
2020/12/06 01:55:12;;;;;;;25.17;16.05;;;4.40;99.90;;;;;;5020729;28;20038;-75
2020/12/06 01:57:38;;;;;;;29.25;18.13;;;4.40;99.90;;;;;;5013354;28;20041;-74
2020/12/06 02:00:07;;;;;;;25.98;15.50;;;4.40;99.90;;;;;;5014405;28;20041;-75
2020/12/06 02:02:34;;;;;;;25.90;16.25;;;4.40;99.90;;;;;;5018367;28;20037;-74
2020/12/06 02:05:01;;;;;;;27.23;16.35;;;4.40;99.90;;;;;;5016202;28;20030;-75
2020/12/06 02:07:27;;;;;;;27.88;16.88;;;4.40;99.90;;;;;;5017518;28;20029;-76
2020/12/06 02:09:53;;;;;;;25.92;16.02;;;4.40;99.90;;;;;;5019989;28;20040;-75
2020/12/06 02:12:18;;;;;;;24.50;15.35;;;4.40;99.90;;;;;;5014700;28;20038;-75
2020/12/06 02:14:44;;;;;;;26.63;16.30;;;4.50;99.90;;;;;;5020571;28;20491;-75
2020/12/06 02:17:10;;;;;;;26.50;16.52;;;4.50;99.90;;;;;;5016252;28;20026;-76
2020/12/06 02:19:35;;;;;;;29.45;17.77;;;4.50;99.90;;;;;;5014069;28;20499;-76
2020/12/06 02:22:01;;;;;;;28.20;16.85;;;5.40;99.90;;;;;;5019327;28;20042;-76
2020/12/06 02:24:27;;;;;;;26.95;15.98;;;4.50;99.90;;;;;;5013928;28;20056;-74
2020/12/06 02:26:52;;;;;;;28.27;16.38;;;4.50;99.90;;;;;;5018877;28;20038;-75
2020/12/06 02:29:19;;;;;;;27.17;17.00;;;;;;;;;;5015288;28;20076;-76
2020/12/06 02:31:45;;;;;;;26.63;16.23;;;4.40;99.90;;;;;;5017079;28;20034;-76
2020/12/06 02:34:11;;;;;;;25.50;15.40;;;4.40;99.90;;;;;;5024203;28;20087;-75
2020/12/06 02:36:37;;;;;;;26.08;16.35;;;4.40;99.90;;;;;;5016627;28;20033;-75
2020/12/06 02:39:04;;;;;;;27.00;15.85;;;4.40;99.90;;;;;;5017063;28;20042;-75
2020/12/06 02:41:44;;;;;;;29.20;17.95;;;4.50;99.90;;;;;;5015418;28;20049;-75
2020/12/06 02:44:12;;;;;;;28.08;16.88;;;4.50;99.90;;;;;;5020023;28;20060;-75
2020/12/06 02:46:38;;;;;;;25.38;15.93;;;4.40;99.90;;;;;;5018521;28;20040;-76
2020/12/06 02:49:05;;;;;;;29.85;16.95;;;4.40;99.90;;;;;;5022731;28;20706;-74
2020/12/06 02:51:31;;;;;;;27.42;17.50;;;4.50;99.90;;;;;;5022542;28;20042;-75
2020/12/06 02:53:57;;;;;;;25.40;15.45;;;4.50;99.90;;;;;;5027290;28;20026;-77
2020/12/06 02:56:23;;;;;;;28.83;17.08;;;4.50;99.90;;;;;;5018263;28;20100;-75
2020/12/06 02:58:49;;;;;;;28.60;16.75;;;4.40;99.90;;;;;;5019913;28;20038;-74
2020/12/06 03:01:14;;;;;;;26.52;15.75;;;4.40;99.90;;;;;;4998816;28;20041;-76
2020/12/06 03:03:40;;;;;;;27.67;16.25;;;4.40;99.90;;;;;;5018835;28;20033;-75
2020/12/06 03:06:06;;;;;;;27.77;16.15;;;4.50;99.90;;;;;;5019242;28;20078;-73
2020/12/06 03:08:32;;;;;;;27.02;15.50;;;4.60;99.90;;;;;;5021356;28;20037;-74
2020/12/06 03:10:58;;;;;;;25.05;14.93;;;4.50;99.90;;;;;;5016693;28;20025;-75
2020/12/06 03:13:24;;;;;;;25.63;14.57;;;4.50;99.90;;;;;;5021082;28;20515;-73
2020/12/06 03:15:50;;;;;;;22.65;14.30;;;4.60;99.90;;;;;;5026898;28;20073;-75
2020/12/06 03:18:15;;;;;;;24.73;15.20;;;4.60;99.90;;;;;;5023787;28;20128;-75
2020/12/06 03:20:41;;;;;;;28.17;16.08;;;4.50;99.90;;;;;;5018853;28;20495;-74
2020/12/06 03:23:06;;;;;;;24.13;14.80;;;4.40;99.90;;;;;;5018234;28;20038;-75
2020/12/06 03:25:33;;;;;;;27.70;16.05;;;4.40;99.90;;;;;;4995995;28;20521;-75
2020/12/06 03:27:58;;;;;;;25.95;15.43;;;4.40;99.90;;;;;;5014480;28;20086;-76
2020/12/06 03:30:24;;;;;;;26.92;15.68;;;4.30;99.90;;;;;;5021456;28;20034;-76
2020/12/06 03:32:49;;;;;;;23.67;14.48;;;4.30;99.90;;;;;;5020039;28;20030;-75
2020/12/06 03:35:15;;;;;;;27.90;16.10;;;4.30;99.90;;;;;;5021944;28;20129;-75
2020/12/06 03:37:41;;;;;;;28.58;16.65;;;4.30;99.90;;;;;;5018790;28;20042;-75
2020/12/06 03:40:06;;;;;;;26.50;16.13;;;4.40;99.90;;;;;;5013082;28;20136;-76
2020/12/06 03:42:32;;;;;;;24.33;14.85;;;4.40;99.90;;;;;;5018611;28;20406;-75
2020/12/06 03:44:57;;;;;;;26.42;14.93;;;4.40;99.90;;;;;;5024954;28;20045;-75
2020/12/06 03:47:23;;;;;;;24.25;14.70;;;4.30;99.90;;;;;;4997707;28;20038;-76
2020/12/06 03:49:49;;;;;;;25.95;15.27;;;4.40;99.90;;;;;;5020839;28;20616;-74
2020/12/06 03:52:15;;;;;;;26.40;15.57;;;4.40;99.90;;;;;;5014675;28;20515;-75
2020/12/06 03:54:41;;;;;;;26.45;15.05;;;4.40;99.90;;;;;;5021033;28;20534;-75
2020/12/06 03:57:07;;;;;;;25.38;14.50;;;4.40;99.90;;;;;;5029689;28;20042;-76
2020/12/06 03:59:33;;;;;;;26.40;15.57;;;4.50;99.90;;;;;;5019789;28;20049;-77
2020/12/06 04:01:58;;;;;;;26.17;15.65;;;4.40;99.90;;;;;;5016188;28;20041;-75
2020/12/06 04:04:24;;;;;;;27.00;15.73;;;4.40;99.90;;;;;;5022979;28;20067;-75
2020/12/06 04:06:49;;;;;;;24.50;15.10;;;4.40;99.90;;;;;;5009768;28;20033;-75
2020/12/06 04:09:15;;;;;;;25.35;14.80;;;4.40;99.90;;;;;;5021136;28;20091;-76
2020/12/06 04:11:41;;;;;;;25.35;14.18;;;4.30;99.90;;;;;;5014753;28;20057;-75
2020/12/06 04:14:07;;;;;;;25.88;15.23;;;4.90;99.90;;;;;;5013967;28;20041;-74
2020/12/06 04:16:33;;;;;;;28.08;15.32;;;4.40;99.90;;;;;;5014643;28;20056;-76
2020/12/06 04:18:58;;;;;;;25.45;14.80;;;4.40;99.90;;;;;;5018409;28;20091;-75
2020/12/06 04:21:24;;;;;;;26.42;15.50;;;4.40;99.90;;;;;;5024147;28;20407;-77
2020/12/06 04:23:50;;;;;;;26.02;15.52;;;4.60;99.90;;;;;;5038082;28;20038;-75
2020/12/06 04:26:16;;;;;;;25.98;15.05;;;4.50;99.90;;;;;;5020551;28;20187;-76
2020/12/06 04:28:42;;;;;;;25.65;14.70;;;4.50;99.90;;;;;;5024826;28;20041;-76
2020/12/06 04:31:08;;;;;;;26.85;15.88;;;4.50;99.90;;;;;;5016338;28;20048;-74
2020/12/06 04:33:34;;;;;;;26.27;15.07;;;4.50;99.90;;;;;;5015523;28;20045;-75
2020/12/06 04:36:00;;;;;;;30.00;16.67;;;4.50;99.90;;;;;;5020670;28;20125;-74
2020/12/06 04:38:26;;;;;;;26.25;15.57;;;4.50;99.90;;;;;;5011220;28;20128;-75
2020/12/06 04:40:51;;;;;;;29.80;17.25;;;4.50;99.90;;;;;;5019436;28;20068;-75
2020/12/06 04:43:19;;;;;;;27.00;15.75;;;4.40;99.90;;;;;;5019870;28;20038;-76
2020/12/06 04:45:45;;;;;;;28.17;15.80;;;4.40;99.90;;;;;;5011544;28;20034;-75
2020/12/06 04:48:22;;;;;;;28.42;15.75;;;4.40;99.90;;;;;;5017687;28;20450;-76
2020/12/06 04:50:51;;;;;;;28.15;15.65;;;4.40;99.90;;;;;;5012627;28;20104;-75
2020/12/06 04:53:18;;;;;;;26.80;15.18;;;4.40;99.90;;;;;;5021623;28;20572;-75
2020/12/06 04:55:46;;;;;;;28.00;15.65;;;4.50;99.90;;;;;;5018971;28;20467;-75
2020/12/06 04:58:23;;;;;;;26.88;15.15;;;4.50;99.90;;;;;;5022042;28;20049;-76
2020/12/06 05:00:51;;;;;;;25.27;14.68;;;4.50;99.90;;;;;;5020301;28;20058;-75
2020/12/06 05:03:21;;;;;;;32.30;16.75;;;4.40;99.90;;;;;;5014485;28;20022;-75
2020/12/06 05:05:49;;;;;;;30.83;15.82;;;4.40;99.90;;;;;;5029939;28;20037;-76
2020/12/06 05:08:15;;;;;;;28.75;16.15;;;4.40;99.90;;;;;;5012974;28;20026;-75
2020/12/06 05:10:42;;;;;;;29.58;16.92;;;4.40;99.90;;;;;;5016683;28;20056;-76
2020/12/06 05:13:09;;;;;;;26.92;15.15;;;4.40;99.90;;;;;;5013903;28;20392;-76
2020/12/06 05:15:35;;;;;;;27.00;15.10;;;4.50;99.90;;;;;;5019868;28;20041;-76
2020/12/06 05:18:03;;;;;;;27.58;15.18;;;4.40;99.90;;;;;;5013682;28;20041;-76
2020/12/06 05:20:29;;;;;;;30.95;16.40;;;4.40;99.90;;;;;;5019709;28;20048;-76
2020/12/06 05:22:55;;;;;;;26.67;15.27;;;4.40;99.90;;;;;;5013314;28;20092;-75
2020/12/06 05:25:21;;;;;;;25.67;14.15;;;4.40;99.90;;;;;;5009771;28;20543;-75
2020/12/06 05:27:48;;;;;;;29.98;16.30;;;4.40;99.90;;;;;;5012067;28;20034;-75
2020/12/06 05:30:15;;;;;;;26.27;15.35;;;4.30;99.90;;;;;;5014297;28;20426;-75
2020/12/06 05:32:40;;;;;;;28.38;15.95;;;4.30;99.90;;;;;;5012590;28;20034;-74
2020/12/06 05:35:08;;;;;;;28.70;15.55;;;4.30;99.90;;;;;;5016757;28;20038;-76
2020/12/06 05:37:38;;;;;;;27.85;15.15;;;4.30;99.90;;;;;;5014050;28;20090;-75
2020/12/06 05:40:09;;;;;;;27.33;14.93;;;4.30;99.90;;;;;;5017897;28;20448;-76
2020/12/06 05:42:36;;;;;;;34.53;17.25;;;4.40;99.90;;;;;;5020112;28;20645;-75
2020/12/06 05:45:02;;;;;;;30.00;16.20;;;4.30;99.90;;;;;;5022208;28;20038;-76
2020/12/06 05:47:28;;;;;;;30.15;16.67;;;4.30;99.90;;;;;;5021418;28;20191;-76
2020/12/06 05:49:58;;;;;;;27.80;14.60;;;4.30;99.90;;;;;;5024060;28;20373;-74
2020/12/06 05:52:29;;;;;;;31.05;16.77;;;5.00;99.90;;;;;;5018913;28;20498;-77
2020/12/06 05:54:56;;;;;;;;;;;4.30;99.90;;;;;;5013023;28;20122;-74
2020/12/06 05:57:25;;;;;;;29.67;15.32;;;4.30;99.90;;;;;;5022664;28;19960;-75
2020/12/06 06:00:03;;;;;;;29.88;14.93;;;4.30;99.90;;;;;;5016526;28;20095;-76
2020/12/06 06:02:29;;;;;;;29.48;16.17;;;4.30;99.90;;;;;;5019567;28;20033;-76
2020/12/06 06:05:06;;;;;;;30.42;16.77;;;4.30;99.90;;;;;;5016145;28;20034;-75
2020/12/06 06:07:34;;;;;;;29.60;16.10;;;4.30;99.90;;;;;;5018153;28;20495;-76
2020/12/06 06:10:04;;;;;;;31.58;16.35;;;4.30;99.90;;;;;;5012792;28;20033;-76
2020/12/06 06:12:31;;;;;;;30.70;15.95;;;5.50;99.90;;;;;;5016683;28;20041;-75
2020/12/06 06:15:02;;;;;;;28.75;15.32;;;4.30;99.90;;;;;;5010845;28;20388;-74
2020/12/06 06:17:30;;;;;;;28.80;15.40;;;4.30;99.90;;;;;;5013550;28;20129;-76
2020/12/06 06:19:56;;;;;;;30.10;16.15;;;4.30;99.90;;;;;;5011762;28;20034;-76
2020/12/06 06:22:37;;;;;;;29.52;15.70;;;4.40;99.90;;;;;;5018700;28;20033;-76
2020/12/06 06:25:04;;;;;;;27.75;14.82;;;4.40;99.90;;;;;;5011789;28;20030;-76
2020/12/06 06:27:36;;;;;;;28.27;15.52;;;4.40;99.90;;;;;;5016156;28;20693;-75
2020/12/06 06:30:06;;;;;;;27.25;15.52;;;4.40;99.90;;;;;;5010143;28;20056;-75
2020/12/06 06:32:32;;;;;;;27.55;16.13;;;4.40;99.90;;;;;;5011547;28;20042;-77
2020/12/06 06:35:00;;;;;;;27.20;14.82;;;4.40;99.90;;;;;;5018176;28;20040;-76
2020/12/06 06:37:34;;;;;;;32.30;17.08;;;4.40;99.90;;;;;;5018724;28;20081;-76
2020/12/06 06:40:06;;;;;;;29.95;15.75;;;4.40;99.90;;;;;;5012359;28;20045;-75
2020/12/06 06:42:32;;;;;;;29.63;17.38;;;4.50;99.90;;;;;;5012599;28;20037;-76
2020/12/06 06:45:09;;;;;;;29.25;15.93;;;4.50;99.90;;;;;;5013527;28;20038;-76
2020/12/06 06:47:42;;;;;;;34.17;17.48;;;4.50;99.90;;;;;;5014280;28;20549;-75
2020/12/06 06:50:10;;;;;;;30.88;16.67;;;4.40;99.90;;;;;;5019869;28;20033;-76
2020/12/06 06:52:41;;;;;;;32.78;16.67;;;4.40;99.90;;;;;;5021434;28;20037;-77
2020/12/06 06:55:08;;;;;;;34.40;17.65;;;4.30;99.90;;;;;;5015157;28;20129;-75
2020/12/06 06:57:34;;;;;;;33.10;17.20;;;4.40;99.90;;;;;;5017710;28;20034;-74
2020/12/06 07:00:01;;;;;;;30.98;16.42;;;4.30;99.90;;;;;;5014231;28;20029;-77
2020/12/06 07:02:42;;;;;;;33.92;17.27;;;4.40;99.90;;;;;;5015603;28;22312;-77
2020/12/06 07:05:11;;;;;;;31.85;17.20;;;4.40;99.90;;;;;;5020073;28;20109;-75
2020/12/06 07:07:44;;;;;;;31.30;17.00;;;4.30;99.90;;;;;;5020375;28;20038;-74
2020/12/06 07:10:16;;;;;;;34.83;18.42;;;4.40;99.90;;;;;;5018046;28;20340;-75
2020/12/06 07:12:47;;;;;;;36.40;17.98;;;4.30;99.90;;;;;;5017077;28;20052;-76
2020/12/06 07:15:14;;;;;;;30.33;16.48;;;4.30;99.90;;;;;;5015711;28;20450;-76
2020/12/06 07:17:40;;;;;;;33.38;17.45;;;4.30;99.90;;;;;;5017006;28;20083;-75
2020/12/06 07:20:09;;;;;;;34.53;18.10;;;4.40;99.90;;;;;;5015596;28;20041;-76
2020/12/06 07:22:36;;;;;;;29.08;16.27;;;4.40;99.90;;;;;;5019148;28;20143;-75
2020/12/06 07:25:04;;;;;;;33.65;18.02;;;4.40;99.90;;;;;;5013521;28;20033;-76
2020/12/06 07:27:34;;;;;;;31.17;16.80;;;4.40;99.90;;;;;;5011466;28;20053;-75
2020/12/06 07:30:00;;;;;;;31.67;16.90;;;4.40;99.90;;;;;;5013367;28;20108;-76
2020/12/06 07:32:26;;;;;;;34.25;17.05;;;4.40;99.90;;;;;;5012049;28;20045;-76
2020/12/06 07:34:52;;;;;;;34.75;17.55;;;4.40;99.90;;;;;;5012918;28;20045;-75
2020/12/06 07:37:18;;;;;;;34.08;18.00;;;4.50;99.90;;;;;;5015396;28;20187;-76
2020/12/06 07:39:45;;;;;;;31.40;17.15;;;4.50;99.90;;;;;;5016445;28;20124;-76
2020/12/06 07:42:21;;;;;;;36.20;18.92;;;4.50;99.90;;;;;;5017136;28;20045;-77
2020/12/06 07:44:48;;;;;;;29.80;16.13;;;4.60;99.90;;;;;;5017972;28;20041;-77
2020/12/06 07:47:15;;;;;;;30.17;16.00;;;4.60;99.90;;;;;;5023836;28;20037;-77
2020/12/06 07:49:46;;;;;;;27.13;15.30;;;4.60;99.90;;;;;;5021270;28;20062;-78
2020/12/06 07:52:13;;;;;;;27.23;15.45;;;4.70;99.90;;;;;;5015901;28;20051;-76
2020/12/06 07:54:39;;;;;;;27.55;15.07;;;4.70;99.90;;;;;;5013320;28;20131;-75
2020/12/06 07:57:07;;;;;;;27.70;15.30;;;4.80;99.90;;;;;;5003618;28;20512;-76
2020/12/06 07:59:34;;;;;;;29.92;15.07;;;4.80;99.90;;;;;;5017615;28;20518;-76
2020/12/06 08:02:00;;;;;;;28.48;15.95;;;4.70;99.90;;;;;;5012965;28;20036;-77
2020/12/06 08:04:31;;;;;;;30.50;16.48;;;4.70;99.90;;;;;;5009475;28;20077;-76
2020/12/06 08:07:10;;;;;;;27.73;15.40;;;4.60;99.90;;;;;;5017678;28;20393;-75
2020/12/06 08:09:39;;;;;;;30.73;16.63;;;4.70;99.90;;;;;;5015522;28;20042;-75
2020/12/06 08:12:08;;;;;;;30.70;17.38;;;4.70;99.90;;;;;;5016113;28;20037;-76
2020/12/06 08:14:37;;;;;;;29.58;16.48;;;4.20;99.90;;;;;;5023611;28;20625;-75
2020/12/06 08:17:03;;;;;;;30.98;16.80;;;4.60;99.90;;;;;;5014593;28;20114;-78
2020/12/06 08:19:29;;;;;;;31.02;17.30;;;4.50;99.90;;;;;;5016907;28;20042;-75
2020/12/06 08:22:02;;;;;;;29.45;16.55;;;4.60;99.90;;;;;;5016059;28;20041;-75
2020/12/06 08:24:30;;;;;;;29.17;16.33;;;4.60;99.90;;;;;;5018946;28;20120;-75
2020/12/06 08:26:57;;;;;;;31.25;16.45;;;4.60;99.90;;;;;;5015681;28;20044;-75
2020/12/06 08:29:46;;;;;;;29.98;15.60;;;4.70;99.90;;;;;;5015227;28;20095;-75
2020/12/06 08:32:11;;;;;;;30.45;16.75;;;4.80;99.90;;;;;;5011547;28;20030;-76
2020/12/06 08:34:38;;;;;;;29.50;16.77;;;4.80;99.90;;;;;;5017198;28;20038;-76
2020/12/06 08:37:18;;;;;;;29.88;16.50;;;4.80;99.90;;;;;;5017870;28;20033;-76
2020/12/06 08:39:45;;;;;;;28.00;16.17;;;4.80;99.90;;;;;;5014959;28;21369;-77
2020/12/06 08:42:20;;;;;;;28.52;15.95;;;4.80;99.90;;;;;;5016075;28;20124;-78
2020/12/06 08:44:54;;;;;;;28.50;15.98;;;4.90;99.90;;;;;;5016683;28;20033;-77
2020/12/06 08:47:21;;;;;;;26.25;15.45;;;4.90;99.90;;;;;;5020956;28;20041;-76
2020/12/06 08:49:47;;;;;;;32.10;16.73;;;4.90;99.90;;;;;;5010152;28;20048;-76
2020/12/06 08:52:23;;;;;;;29.83;16.75;;;4.90;99.90;;;;;;5005102;28;20049;-74
2020/12/06 08:54:50;;;;;;;32.15;17.90;;;4.80;99.90;;;;;;5005255;28;20041;-74
2020/12/06 08:57:16;;;;;;;28.92;16.85;;;4.80;99.90;;;;;;5011638;28;20446;-77
2020/12/06 08:59:42;;;;;;;32.92;17.90;;;4.90;99.90;;;;;;5022815;28;20046;-77
2020/12/06 09:02:09;;;;;;;32.13;16.58;;;5.00;99.90;;;;;;5018851;28;20100;-77
2020/12/06 09:04:36;;;;;;;34.35;18.08;;;5.00;99.90;;;;;;5008968;28;20041;-76
2020/12/06 09:07:05;;;;;;;29.48;16.88;;;5.10;99.90;;;;;;5015332;28;20037;-77
2020/12/06 09:09:32;;;;;;;34.72;19.10;;;5.10;99.90;;;;;;5013488;28;20207;-76
2020/12/06 09:11:58;;;;;;;32.78;17.65;;;5.10;99.90;;;;;;5013718;28;20033;-74
2020/12/06 09:14:24;;;;;;;30.05;16.80;;;5.10;99.90;;;;;;5017732;28;20037;-75
2020/12/06 09:16:51;;;;;;;32.08;17.15;;;5.10;99.90;;;;;;5014857;28;20556;-75
2020/12/06 09:19:17;;;;;;;32.47;18.33;;;5.10;99.90;;;;;;5021125;28;20072;-76
2020/12/06 09:21:45;;;;;;;34.25;18.25;;;5.10;99.90;;;;;;5015551;28;20099;-75
2020/12/06 09:24:10;;;;;;;33.55;17.98;;;5.00;99.90;;;;;;4998306;28;20034;-78
2020/12/06 09:26:38;;;;;;;34.58;18.00;;;5.10;99.90;;;;;;5017902;28;20033;-77
2020/12/06 09:29:04;;;;;;;34.83;18.35;;;5.10;99.90;;;;;;5014575;28;20483;-75
2020/12/06 09:31:30;;;;;;;33.88;18.38;;;5.10;99.90;;;;;;5015716;28;20045;-76
2020/12/06 09:33:56;;;;;;;35.40;18.90;;;5.10;99.90;;;;;;5013334;28;20033;-75
2020/12/06 09:36:22;;;;;;;33.85;18.65;;;5.00;99.90;;;;;;5015499;28;20037;-75
2020/12/06 09:38:48;;;;;;;35.33;17.83;;;5.10;99.90;;;;;;5012440;28;20507;-76
2020/12/06 09:41:13;;;;;;;34.33;19.58;;;5.20;99.90;;;;;;5019741;28;20036;-75
2020/12/06 09:43:44;;;;;;;35.63;19.50;;;5.20;99.90;;;;;;5010241;28;20084;-74
2020/12/06 09:46:11;;;;;;;;;;;5.20;99.90;;;;;;5027692;28;20037;-74
2020/12/06 09:48:37;;;;;;;35.55;18.83;;;5.30;99.90;;;;;;5019334;28;19920;-75
2020/12/06 09:51:06;;;;;;;32.70;18.20;;;5.40;99.90;;;;;;5020462;28;20885;-75
2020/12/06 09:53:32;;;;;;;34.92;19.17;;;5.30;99.70;;;;;;5013771;28;20541;-75
2020/12/06 09:55:57;;;;;;;34.53;19.60;;;5.20;99.90;;;;;;5021144;28;20025;-75
2020/12/06 09:58:23;;;;;;;37.20;19.70;;;5.20;99.90;;;;;;5015282;28;20045;-76
2020/12/06 10:00:50;;;;;;;38.83;19.95;;;5.20;99.90;;;;;;5008297;28;20049;-75
2020/12/06 10:03:16;;;;;;;36.28;19.80;;;5.20;99.90;;;;;;5018110;28;20086;-74
2020/12/06 10:05:43;;;;;;;36.85;19.48;;;5.20;99.90;;;;;;5016065;28;20127;-77
2020/12/06 10:08:09;;;;;;;36.15;18.83;;;5.30;99.90;;;;;;5013627;28;20033;-74
2020/12/06 10:10:35;;;;;;;35.58;18.95;;;5.30;99.90;;;;;;5013303;28;20050;-75
2020/12/06 10:13:01;;;;;;;36.20;19.00;;;5.20;99.90;;;;;;5012572;28;20048;-75
2020/12/06 10:15:26;;;;;;;34.55;19.13;;;5.20;99.90;;;;;;5015315;28;20038;-77
2020/12/06 10:17:52;;;;;;;34.25;18.52;;;5.20;99.90;;;;;;5016281;28;20073;-74
2020/12/06 10:20:21;;;;;;;36.17;19.85;;;5.30;99.90;;;;;;5015169;28;20080;-75
2020/12/06 10:22:46;;;;;;;35.08;19.50;;;5.30;99.90;;;;;;5015321;28;20034;-74
2020/12/06 10:25:14;;;;;;;36.15;19.35;;;5.30;99.90;;;;;;5010812;28;20488;-75
2020/12/06 10:27:40;;;;;;;37.08;19.45;;;5.40;99.90;;;;;;5014748;28;20495;-76
2020/12/06 10:30:06;;;;;;;37.70;20.52;;;5.50;99.90;;;;;;5018199;28;20046;-75
2020/12/06 10:32:32;;;;;;;38.90;21.30;;;5.40;99.90;;;;;;5012762;28;20046;-76
2020/12/06 10:34:58;;;;;;;39.67;21.25;;;5.40;99.90;;;;;;5023709;28;20083;-75
2020/12/06 10:37:24;;;;;;;41.17;22.73;;;5.40;99.90;;;;;;5015114;28;20077;-75
2020/12/06 10:39:50;;;;;;;41.40;22.77;;;5.30;99.90;;;;;;5021236;28;20030;-77
2020/12/06 10:42:16;;;;;;;41.33;21.50;;;5.40;99.90;;;;;;5014392;28;20045;-78
2020/12/06 10:44:42;;;;;;;41.75;20.83;;;5.40;99.90;;;;;;5016751;28;21680;-78
2020/12/06 10:47:07;;;;;;;41.53;21.13;;;5.60;99.90;;;;;;5021615;28;20033;-75
2020/12/06 10:49:40;;;;;;;41.45;22.45;;;5.70;99.40;;;;;;5017602;28;20029;-76
2020/12/06 10:52:12;;;;;;;40.95;21.38;;;5.70;99.30;;;;;;5015858;28;20041;-76
2020/12/06 10:54:38;;;;;;;37.70;20.77;;;5.80;99.10;;;;;;5014072;28;20530;-76
2020/12/06 10:57:07;;;;;;;40.05;21.15;;;5.90;99.10;;;;;;5025901;28;20044;-76
2020/12/06 10:59:35;;;;;;;39.78;22.60;;;5.80;99.10;;;;;;5021219;28;20045;-76
2020/12/06 11:02:01;;;;;;;42.03;22.23;;;5.80;99.10;;;;;;5018271;28;20088;-74
2020/12/06 11:04:27;;;;;;;42.97;22.42;;;5.80;98.90;;;;;;5024418;28;20029;-76
2020/12/06 11:06:52;;;;;;;40.10;20.88;;;5.80;99.30;;;;;;5014099;28;20045;-77
2020/12/06 11:09:18;;;;;;;37.63;20.75;;;5.80;99.20;;;;;;5018957;28;20156;-76
2020/12/06 11:11:49;;;;;;;40.30;21.88;;;6.00;98.90;;;;;;5025896;28;20471;-76
2020/12/06 11:14:14;;;;;;;35.45;19.67;;;5.80;98.90;;;;;;5018734;28;20030;-76
2020/12/06 11:16:40;;;;;;;38.67;21.02;;;5.80;99.20;;;;;;5020960;28;20117;-76
2020/12/06 11:19:06;;;;;;;40.28;21.67;;;5.90;99.10;;;;;;4989183;28;20038;-78
2020/12/06 11:21:34;;;;;;;33.72;19.45;;;5.90;99.00;;;;;;5019330;28;20267;-76
2020/12/06 11:24:00;;;;;;;38.92;19.92;;;6.00;98.60;;;;;;5020087;28;20095;-75
2020/12/06 11:26:25;;;;;;;35.95;20.42;;;6.00;98.10;;;;;;5008296;28;20042;-75
2020/12/06 11:28:51;;;;;;;36.05;20.60;;;5.90;98.70;;;;;;5026699;28;20037;-77
2020/12/06 11:31:17;;;;;;;33.53;19.52;;;5.90;98.40;;;;;;5020443;28;20416;-75
2020/12/06 11:33:43;;;;;;;37.58;19.73;;;5.90;98.60;;;;;;5024336;28;20044;-75
2020/12/06 11:36:10;;;;;;;34.53;19.58;;;5.90;98.70;;;;;;5022908;28;20037;-74
2020/12/06 11:38:37;;;;;;;34.63;19.63;;;5.90;98.30;;;;;;5025410;28;20328;-75
2020/12/06 11:41:03;;;;;;;33.42;19.33;;;5.90;98.40;;;;;;5024184;28;20032;-75
2020/12/06 11:43:29;;;;;;;31.50;18.63;;;5.90;98.80;;;;;;5031077;28;20138;-77
2020/12/06 11:45:55;;;;;;;31.45;18.85;;;6.00;97.90;;;;;;5020125;28;20695;-75
2020/12/06 11:48:21;;;;;;;33.90;19.45;;;6.10;97.80;;;;;;5006019;28;20068;-77
2020/12/06 11:50:46;;;;;;;36.67;19.58;;;6.00;98.00;;;;;;5019528;28;20053;-77
2020/12/06 11:53:12;;;;;;;31.60;17.83;;;6.00;98.30;;;;;;5009318;28;20502;-75
2020/12/06 11:55:38;;;;;;;32.05;18.73;;;6.10;98.50;;;;;;5012000;28;20046;-75
2020/12/06 11:58:03;;;;;;;33.78;19.05;;;6.20;98.40;;;;;;5016139;28;20030;-73
2020/12/06 12:00:29;;;;;;;32.65;19.00;;;6.20;97.80;;;;;;5022394;28;20046;-75
2020/12/06 12:02:55;;;;;;;33.08;19.13;;;6.20;98.10;;;;;;5015588;28;20026;-75
2020/12/06 12:05:24;;;;;;;31.38;18.58;;;6.30;97.90;;;;;;5016938;28;20044;-76
2020/12/06 12:07:50;;;;;;;30.85;19.50;;;6.30;98.00;;;;;;5023364;28;20029;-76
2020/12/06 12:10:16;;;;;;;33.67;18.98;;;6.30;97.70;;;;;;5020516;28;20034;-76
2020/12/06 12:12:47;;;;;;;30.90;18.40;;;6.20;97.80;;;;;;5016706;28;20384;-75
2020/12/06 12:15:13;;;;;;;30.30;18.33;;;6.10;97.80;;;;;;5018256;28;20108;-76
2020/12/06 12:17:38;;;;;;;30.52;18.50;;;6.10;97.90;;;;;;5019047;28;20049;-75
2020/12/06 12:20:06;;;;;;;29.52;17.20;;;6.00;98.10;;;;;;5022828;28;20026;-75
2020/12/06 12:22:32;;;;;;;33.47;18.73;;;6.20;98.10;;;;;;5022303;28;20048;-74
2020/12/06 12:24:58;;;;;;;28.67;17.02;;;6.40;97.60;;;;;;5032409;28;20049;-77
2020/12/06 12:27:24;;;;;;;29.40;17.08;;;6.20;98.00;;;;;;5020684;28;20060;-75
2020/12/06 12:29:50;;;;;;;27.35;16.88;;;6.20;97.90;;;;;;5032889;28;20047;-75
2020/12/06 12:32:16;;;;;;;28.17;17.88;;;6.10;97.90;;;;;;5037623;28;20073;-75
2020/12/06 12:34:41;;;;;;;25.15;15.73;;;6.20;97.50;;;;;;5022748;28;20172;-75
2020/12/06 12:37:08;;;;;;;28.27;15.65;;;6.00;97.60;;;;;;5015151;28;20727;-76